Time;durP1;ratioP1;P1;durP2;ratioP2;P2;SDS_P1;SDS_P2;PMS_P1;PMS_P2;Temp;Humidity;BMP_temperature;BMP_pressure;BME280_temperature;BME280_humidity;BME280_pressure;Samples;Min_cycle;Max_cycle;Signal;HPM_P1;HPM_P2
2023/05/10 00:02:07;;;;;;;6.65;6.05;;;15.50;80.80;;;;;;5016347;28;20077;-69
2023/05/10 00:04:32;;;;;;;7.20;6.50;;;15.40;80.80;;;;;;5011667;28;20042;-69
2023/05/10 00:06:58;;;;;;;6.90;6.20;;;15.40;80.90;;;;;;5018652;28;20037;-69
2023/05/10 00:09:24;;;;;;;8.05;6.50;;;15.40;80.90;;;;;;5008039;28;20409;-69
2023/05/10 00:11:50;;;;;;;7.28;6.57;;;15.40;81.00;;;;;;5015668;28;20038;-70
2023/05/10 00:14:16;;;;;;;7.60;6.85;;;15.40;81.00;;;;;;5015564;28;20049;-69
2023/05/10 00:16:41;;;;;;;7.35;6.65;;;15.40;81.00;;;;;;5013880;28;20542;-70
2023/05/10 00:19:07;;;;;;;8.52;7.63;;;15.30;81.00;;;;;;5002265;28;20069;-69
2023/05/10 00:21:33;;;;;;;7.25;6.55;;;15.30;81.00;;;;;;5034522;28;20041;-69
2023/05/10 00:23:59;;;;;;;8.02;7.22;;;15.40;81.00;;;;;;5016906;28;20400;-70
2023/05/10 00:26:25;;;;;;;6.20;5.60;;;15.30;81.00;;;;;;5035108;28;20544;-70
2023/05/10 00:28:51;;;;;;;7.03;6.18;;;15.30;81.00;;;;;;5029541;28;20125;-70
2023/05/10 00:31:17;;;;;;;7.50;6.57;;;15.30;81.00;;;;;;5015099;28;20120;-70
2023/05/10 00:33:42;;;;;;;7.43;6.72;;;15.30;80.90;;;;;;5015182;28;20042;-70
2023/05/10 00:36:08;;;;;;;6.68;5.93;;;15.30;80.90;;;;;;5027702;28;20083;-70
2023/05/10 00:38:34;;;;;;;7.28;6.53;;;15.30;80.90;;;;;;5013487;28;20087;-70
2023/05/10 00:41:00;;;;;;;7.85;7.07;;;15.30;80.90;;;;;;5015090;28;20034;-70
2023/05/10 00:43:25;;;;;;;7.95;6.68;;;15.30;80.90;;;;;;4998956;28;20112;-70
2023/05/10 00:45:52;;;;;;;7.38;6.57;;;15.30;80.90;;;;;;5015798;28;20396;-70
2023/05/10 00:48:18;;;;;;;7.20;6.03;;;15.30;80.90;;;;;;5000105;28;20041;-70
2023/05/10 00:50:44;;;;;;;6.43;5.82;;;15.30;80.80;;;;;;5016605;28;20388;-69
2023/05/10 00:53:10;;;;;;;7.55;5.72;;;15.30;80.80;;;;;;5015978;28;20033;-70
2023/05/10 00:55:37;;;;;;;6.30;5.63;;;15.20;80.70;;;;;;5014698;28;20497;-70
2023/05/10 00:58:03;;;;;;;6.95;6.25;;;15.20;80.70;;;;;;5015244;28;20046;-69
2023/05/10 01:00:29;;;;;;;6.30;5.15;;;15.20;80.70;;;;;;5032489;28;20039;-70
2023/05/10 01:02:55;;;;;;;7.07;5.80;;;15.20;80.70;;;;;;5033789;28;20053;-70
2023/05/10 01:05:21;;;;;;;5.47;4.88;;;15.20;80.60;;;;;;5030945;28;20038;-69
2023/05/10 01:07:47;;;;;;;6.40;5.80;;;15.30;80.70;;;;;;5014592;28;20435;-70
2023/05/10 01:10:12;;;;;;;6.32;5.20;;;15.20;80.60;;;;;;5029790;28;20196;-70
2023/05/10 01:12:40;;;;;;;6.32;5.57;;;15.20;80.70;;;;;;5033832;28;20041;-70
2023/05/10 01:15:11;;;;;;;5.32;4.80;;;15.20;80.70;;;;;;5034092;28;20558;-69
2023/05/10 01:17:39;;;;;;;6.85;6.15;;;15.20;80.70;;;;;;5026560;28;20042;-70
2023/05/10 01:20:07;;;;;;;5.72;4.93;;;15.20;80.60;;;;;;5020053;28;20038;-69
2023/05/10 01:22:36;;;;;;;6.75;6.10;;;15.20;80.60;;;;;;5024825;28;20516;-70
2023/05/10 01:25:37;;;;;;;6.32;4.95;;;15.20;80.60;;;;;;5032609;28;20049;-70
2023/05/10 01:28:52;;;;;;;6.35;5.75;;;15.20;80.50;;;;;;5011517;28;20140;-70
2023/05/10 01:31:52;;;;;;;5.53;4.95;;;15.20;80.40;;;;;;4997625;28;20485;-70
2023/05/10 01:34:27;;;;;;;6.60;5.28;;;15.10;80.40;;;;;;5023894;28;20042;-70
2023/05/10 01:37:05;;;;;;;5.65;4.88;;;15.10;80.50;;;;;;5032185;28;20063;-70
2023/05/10 01:39:55;;;;;;;5.10;4.45;;;15.10;80.60;;;;;;5024900;28;20041;-70
2023/05/10 01:42:25;;;;;;;6.15;5.00;;;15.10;80.40;;;;;;5012810;28;20080;-69
2023/05/10 01:44:53;;;;;;;5.80;5.20;;;15.10;80.60;;;;;;5027193;28;20046;-69
2023/05/10 01:47:42;;;;;;;5.57;4.97;;;15.10;80.60;;;;;;5013746;28;20084;-69
2023/05/10 01:50:16;;;;;;;4.45;3.88;;;15.10;80.50;;;;;;5027493;28;20044;-69
2023/05/10 01:52:44;;;;;;;5.72;4.93;;;15.10;80.50;;;;;;5019433;28;20049;-69
2023/05/10 01:55:16;;;;;;;4.80;4.07;;;15.10;80.50;;;;;;5013636;28;20081;-69
2023/05/10 01:57:46;;;;;;;4.60;4.15;;;15.10;80.50;;;;;;4997276;28;20050;-69
2023/05/10 02:00:13;;;;;;;5.88;4.53;;;15.10;80.40;;;;;;5027778;28;20049;-69
2023/05/10 02:02:42;;;;;;;4.75;4.05;;;15.10;80.50;;;;;;5031458;28;20041;-69
2023/05/10 02:05:09;;;;;;;5.15;4.45;;;15.10;80.50;;;;;;5014278;28;20049;-69
2023/05/10 02:07:36;;;;;;;4.82;4.20;;;15.10;80.40;;;;;;5016617;28;20037;-69
2023/05/10 02:10:07;;;;;;;5.43;4.18;;;15.10;80.40;;;;;;5003709;28;20103;-69
2023/05/10 02:12:41;;;;;;;4.53;4.03;;;15.10;80.40;;;;;;4996766;28;20038;-69
2023/05/10 02:15:07;;;;;;;;;;;15.10;80.30;;;;;;4997518;28;20046;-69
2023/05/10 02:17:36;;;;;;;5.05;3.75;;;15.00;80.00;;;;;;5000111;28;20324;-69
2023/05/10 02:20:05;;;;;;;4.75;3.85;;;15.00;80.30;;;;;;5010451;28;20112;-69
2023/05/10 02:22:31;;;;;;;5.05;4.30;;;15.00;80.20;;;;;;5023055;28;20041;-69
2023/05/10 02:24:59;;;;;;;6.22;4.85;;;15.00;80.20;;;;;;4997075;28;20100;-69
2023/05/10 02:27:27;;;;;;;4.70;4.20;;;15.00;80.20;;;;;;5012625;28;20061;-69
2023/05/10 02:29:54;;;;;;;5.25;4.30;;;15.00;80.20;;;;;;5014231;28;20045;-69
2023/05/10 02:32:21;;;;;;;4.43;4.03;;;15.00;80.20;;;;;;5012919;28;20049;-69
2023/05/10 02:34:51;;;;;;;4.68;4.03;;;15.00;80.20;;;;;;5013242;28;20049;-69
2023/05/10 02:37:20;;;;;;;4.80;4.30;;;15.00;80.30;;;;;;5029741;28;20057;-69
2023/05/10 02:39:50;;;;;;;4.50;3.90;;;15.00;80.30;;;;;;4996476;28;20095;-69
2023/05/10 02:42:23;;;;;;;4.40;3.97;;;15.00;80.30;;;;;;5025906;28;20100;-69
2023/05/10 02:44:52;;;;;;;4.30;3.90;;;14.90;80.20;;;;;;5032256;28;20045;-69
2023/05/10 02:47:19;;;;;;;5.78;4.47;;;14.90;80.20;;;;;;5032515;28;20114;-69
2023/05/10 02:49:45;;;;;;;4.70;3.90;;;14.90;80.20;;;;;;5032644;28;20439;-69
2023/05/10 02:52:14;;;;;;;5.05;4.55;;;14.90;80.20;;;;;;5021295;28;20042;-68
2023/05/10 02:54:45;;;;;;;4.35;3.95;;;14.90;80.30;;;;;;4999582;28;20041;-69
2023/05/10 02:57:15;;;;;;;5.00;4.50;;;14.90;80.30;;;;;;5012769;28;20049;-69
2023/05/10 02:59:42;;;;;;;5.45;4.57;;;14.90;80.30;;;;;;5012697;28;20499;-69
2023/05/10 03:02:09;;;;;;;5.57;5.07;;;14.90;80.30;;;;;;5013588;28;20046;-69
2023/05/10 03:04:35;;;;;;;6.07;5.47;;;14.90;80.30;;;;;;5012751;28;20058;-69
2023/05/10 03:07:01;;;;;;;4.97;4.18;;;14.90;80.30;;;;;;5012451;28;20046;-69
2023/05/10 03:09:27;;;;;;;5.78;5.25;;;14.90;80.30;;;;;;5022069;28;20392;-68
2023/05/10 03:12:07;;;;;;;5.57;4.57;;;14.90;80.30;;;;;;5031952;28;20049;-69
2023/05/10 03:14:57;;;;;;;6.43;5.03;;;14.90;80.30;;;;;;5031419;28;20052;-68
2023/05/10 03:17:30;;;;;;;5.28;4.78;;;14.90;80.30;;;;;;5031935;28;20048;-69
2023/05/10 03:19:58;;;;;;;5.63;5.13;;;14.80;80.30;;;;;;5031513;28;20041;-69
2023/05/10 03:22:31;;;;;;;5.65;5.07;;;14.80;80.30;;;;;;5017481;28;20060;-69
2023/05/10 03:24:58;;;;;;;5.13;4.20;;;14.80;80.30;;;;;;4996842;28;20053;-69
2023/05/10 03:27:26;;;;;;;5.82;5.22;;;14.80;80.40;;;;;;5012104;28;20049;-69
2023/05/10 03:29:54;;;;;;;5.85;5.10;;;14.80;80.40;;;;;;5021842;28;20049;-69
2023/05/10 03:32:20;;;;;;;6.07;4.82;;;14.80;80.40;;;;;;5029757;28;20072;-68
2023/05/10 03:34:46;;;;;;;4.40;4.00;;;14.80;80.40;;;;;;5031690;28;20079;-69
2023/05/10 03:37:11;;;;;;;5.45;4.18;;;14.80;80.50;;;;;;5031720;28;20120;-68
2023/05/10 03:39:37;;;;;;;5.10;4.55;;;14.80;80.50;;;;;;5022463;28;20046;-68
2023/05/10 03:42:03;;;;;;;5.97;4.88;;;14.80;80.50;;;;;;4995511;28;20077;-68
2023/05/10 03:44:28;;;;;;;6.68;4.97;;;14.80;80.50;;;;;;5025887;28;20068;-68
2023/05/10 03:46:55;;;;;;;5.93;4.53;;;14.80;80.60;;;;;;5019219;28;20045;-69
2023/05/10 03:49:20;;;;;;;5.10;4.55;;;14.70;80.60;;;;;;5031556;28;20077;-68
2023/05/10 03:51:46;;;;;;;5.38;4.60;;;14.70;80.60;;;;;;5031247;28;20081;-68
2023/05/10 03:54:12;;;;;;;6.10;4.75;;;14.80;80.70;;;;;;5031420;28;20546;-69
2023/05/10 03:56:37;;;;;;;6.22;5.60;;;14.70;81.10;;;;;;5031374;28;20073;-69
2023/05/10 03:59:07;;;;;;;6.15;5.55;;;14.70;80.70;;;;;;5013034;28;20156;-68
2023/05/10 04:01:33;;;;;;;6.28;5.30;;;14.70;80.80;;;;;;5012971;28;20061;-69
2023/05/10 04:03:59;;;;;;;5.53;4.72;;;14.70;81.30;;;;;;4995210;28;20057;-68
2023/05/10 04:06:25;;;;;;;5.88;4.63;;;14.70;80.90;;;;;;5011782;28;20046;-69
2023/05/10 04:08:50;;;;;;;5.30;4.75;;;14.70;80.90;;;;;;5017228;28;20045;-68
2023/05/10 04:11:16;;;;;;;5.10;4.35;;;14.70;80.90;;;;;;5031162;28;20045;-68
2023/05/10 04:13:42;;;;;;;5.72;5.13;;;14.70;80.90;;;;;;5026798;28;20092;-68
2023/05/10 04:16:08;;;;;;;5.72;4.82;;;14.70;81.00;;;;;;5013483;28;20402;-68
2023/05/10 04:18:35;;;;;;;5.45;4.72;;;14.70;81.00;;;;;;4996244;28;20111;-68
2023/05/10 04:21:00;;;;;;;5.57;4.22;;;14.70;81.00;;;;;;5011491;28;20504;-68
2023/05/10 04:23:27;;;;;;;4.97;4.20;;;14.70;80.90;;;;;;5011217;28;20054;-68
2023/05/10 04:25:58;;;;;;;5.10;4.60;;;14.70;80.90;;;;;;4995075;28;20053;-69
2023/05/10 04:28:24;;;;;;;5.00;4.50;;;14.70;81.00;;;;;;5011846;28;20042;-69
2023/05/10 04:30:50;;;;;;;5.18;4.60;;;14.70;81.00;;;;;;5026781;28;20510;-68
2023/05/10 04:33:15;;;;;;;4.65;4.00;;;14.70;81.00;;;;;;5029043;28;20108;-68
2023/05/10 04:35:41;;;;;;;5.50;4.35;;;14.70;81.00;;;;;;5012449;28;20044;-69
2023/05/10 04:38:07;;;;;;;7.30;4.75;;;14.70;81.00;;;;;;5030968;28;20077;-68
2023/05/10 04:40:32;;;;;;;4.85;3.80;;;14.70;81.00;;;;;;5030584;28;20120;-68
2023/05/10 04:42:58;;;;;;;4.72;4.13;;;14.70;81.00;;;;;;5030651;28;20120;-74
2023/05/10 04:45:24;;;;;;;4.68;4.03;;;14.70;81.00;;;;;;5030915;28;20045;-74
2023/05/10 04:47:49;;;;;;;5.47;3.95;;;14.70;81.00;;;;;;5031308;28;20052;-73
2023/05/10 04:50:15;;;;;;;6.05;4.80;;;14.70;81.00;;;;;;5015621;28;20562;-73
2023/05/10 04:52:41;;;;;;;7.68;5.40;;;14.70;81.10;;;;;;5013859;28;20187;-73
2023/05/10 04:55:09;;;;;;;5.75;5.18;;;14.70;81.10;;;;;;5014622;28;20088;-73
2023/05/10 04:57:35;;;;;;;5.55;4.70;;;14.70;81.10;;;;;;5014528;28;20060;-73
2023/05/10 05:00:01;;;;;;;5.25;4.50;;;14.70;81.20;;;;;;5013323;28;20038;-73
2023/05/10 05:02:27;;;;;;;7.57;5.45;;;14.70;81.20;;;;;;5014647;28;20515;-73
2023/05/10 05:04:52;;;;;;;5.22;4.60;;;14.60;81.20;;;;;;5017584;28;20041;-73
2023/05/10 05:07:18;;;;;;;5.30;4.80;;;14.60;81.70;;;;;;5031796;28;20124;-75
2023/05/10 05:09:44;;;;;;;5.25;4.75;;;14.60;81.30;;;;;;5014633;28;20042;-73
2023/05/10 05:12:13;;;;;;;7.05;4.68;;;14.70;81.40;;;;;;5001194;28;20034;-74
2023/05/10 05:14:39;;;;;;;5.57;4.57;;;14.60;81.40;;;;;;5034636;28;20045;-75
2023/05/10 05:17:05;;;;;;;7.35;5.55;;;14.60;81.40;;;;;;5034205;28;20056;-74
2023/05/10 05:19:31;;;;;;;6.20;5.22;;;14.60;81.50;;;;;;5001736;28;20034;-74
2023/05/10 05:21:57;;;;;;;7.60;5.53;;;14.60;81.50;;;;;;5033836;28;20132;-74
2023/05/10 05:24:23;;;;;;;8.10;5.68;;;14.60;81.60;;;;;;5027101;28;20054;-74
2023/05/10 05:26:48;;;;;;;7.85;5.15;;;14.60;81.60;;;;;;5033389;28;20382;-73
2023/05/10 05:29:14;;;;;;;5.93;4.90;;;14.60;81.60;;;;;;5017166;28;20061;-74
2023/05/10 05:31:40;;;;;;;6.90;4.95;;;14.60;81.60;;;;;;5015541;28;20038;-73
2023/05/10 05:34:05;;;;;;;7.53;5.50;;;14.70;81.60;;;;;;5014215;28;20441;-74
2023/05/10 05:36:32;;;;;;;5.70;5.05;;;14.60;81.60;;;;;;4965865;28;20133;-74
2023/05/10 05:38:58;;;;;;;6.28;4.90;;;14.60;81.50;;;;;;5014190;28;20041;-74
2023/05/10 05:41:24;;;;;;;6.57;4.80;;;14.60;81.40;;;;;;5027120;28;20049;-73
2023/05/10 05:43:50;;;;;;;6.72;5.60;;;14.60;81.40;;;;;;5052349;28;20060;-74
2023/05/10 05:46:15;;;;;;;5.22;4.65;;;14.60;81.50;;;;;;5048373;28;20049;-74
2023/05/10 05:48:41;;;;;;;5.32;4.80;;;14.60;81.50;;;;;;5033607;28;20033;-73
2023/05/10 05:51:07;;;;;;;5.03;4.50;;;14.70;81.60;;;;;;5032527;28;20094;-73
2023/05/10 05:53:33;;;;;;;7.45;5.68;;;14.70;81.60;;;;;;5012597;28;20117;-74
2023/05/10 05:55:58;;;;;;;7.03;5.85;;;14.60;81.50;;;;;;5033022;28;20431;-73
2023/05/10 05:58:27;;;;;;;6.97;5.50;;;14.70;81.70;;;;;;5037600;28;20040;-74
2023/05/10 06:00:53;;;;;;;5.65;5.00;;;14.70;81.80;;;;;;5029127;28;20080;-73
2023/05/10 06:03:19;;;;;;;5.38;4.85;;;14.70;81.80;;;;;;5023440;28;20088;-75
2023/05/10 06:05:45;;;;;;;6.30;5.22;;;14.70;81.90;;;;;;5030452;28;20045;-76
2023/05/10 06:08:11;;;;;;;5.40;4.88;;;14.70;82.10;;;;;;5033549;28;20099;-74
2023/05/10 06:10:36;;;;;;;6.60;4.85;;;14.70;82.10;;;;;;5016347;28;20498;-73
2023/05/10 06:13:02;;;;;;;6.10;5.20;;;14.80;82.20;;;;;;5033122;28;20037;-73
2023/05/10 06:15:28;;;;;;;6.22;5.18;;;14.80;82.20;;;;;;5033485;28;20539;-73
2023/05/10 06:17:54;;;;;;;5.78;4.70;;;14.80;82.10;;;;;;5016800;28;20151;-73
2023/05/10 06:20:19;;;;;;;5.68;4.90;;;14.80;82.00;;;;;;5016794;28;20072;-73
2023/05/10 06:22:45;;;;;;;5.65;5.05;;;14.80;81.90;;;;;;5032872;28;20047;-72
2023/05/10 06:25:11;;;;;;;5.85;4.88;;;14.80;81.90;;;;;;5016635;28;20053;-73
2023/05/10 06:27:37;;;;;;;8.02;6.05;;;14.80;81.80;;;;;;5026539;28;20041;-73
2023/05/10 06:30:03;;;;;;;7.45;6.03;;;14.90;81.80;;;;;;4997283;28;20104;-73
2023/05/10 06:32:29;;;;;;;6.75;5.57;;;14.90;81.80;;;;;;5016611;28;20405;-73
2023/05/10 06:34:55;;;;;;;6.53;5.07;;;14.90;81.80;;;;;;5021704;28;20041;-73
2023/05/10 06:37:20;;;;;;;6.28;5.20;;;14.90;81.70;;;;;;4996881;28;20489;-73
2023/05/10 06:39:46;;;;;;;6.72;5.32;;;14.90;81.60;;;;;;5023009;28;20068;-73
2023/05/10 06:42:11;;;;;;;6.38;5.20;;;14.90;81.60;;;;;;5013489;28;20045;-73
2023/05/10 06:44:37;;;;;;;5.90;5.05;;;14.90;81.60;;;;;;4996788;28;20405;-73
2023/05/10 06:47:03;;;;;;;8.27;6.03;;;15.00;81.50;;;;;;5013011;28;20037;-73
2023/05/10 06:49:29;;;;;;;7.60;5.55;;;14.90;81.50;;;;;;4996975;28;20046;-73
2023/05/10 06:51:55;;;;;;;6.53;5.07;;;14.90;81.30;;;;;;4996424;28;20045;-73
2023/05/10 06:54:21;;;;;;;6.55;5.05;;;14.90;81.30;;;;;;5013096;28;20042;-74
2023/05/10 06:56:48;;;;;;;7.72;5.55;;;15.00;81.30;;;;;;5012908;28;20049;-73
2023/05/10 06:59:14;;;;;;;6.38;4.95;;;14.90;81.30;;;;;;4996674;28;20042;-73
2023/05/10 07:01:40;;;;;;;6.10;4.22;;;14.90;81.30;;;;;;5013979;28;20096;-73
2023/05/10 07:04:07;;;;;;;6.50;4.47;;;14.90;81.20;;;;;;5018212;28;20037;-73
2023/05/10 07:06:33;;;;;;;6.90;5.13;;;15.00;81.30;;;;;;4995886;28;20057;-73
2023/05/10 07:08:59;;;;;;;7.85;4.88;;;15.00;81.40;;;;;;5012442;28;20049;-73
2023/05/10 07:11:25;;;;;;;6.45;4.32;;;15.00;81.40;;;;;;5012183;28;20045;-73
2023/05/10 07:13:50;;;;;;;7.72;4.88;;;15.00;81.30;;;;;;5012816;28;20571;-74
2023/05/10 07:16:16;;;;;;;6.10;4.20;;;15.00;81.20;;;;;;5013353;28;20045;-74
2023/05/10 07:18:42;;;;;;;6.03;4.40;;;15.00;81.00;;;;;;5012673;28;20057;-73
2023/05/10 07:21:08;;;;;;;7.10;4.75;;;15.00;80.80;;;;;;5012094;28;20544;-73
2023/05/10 07:23:34;;;;;;;6.50;4.32;;;15.10;80.70;;;;;;5018031;28;20064;-74
2023/05/10 07:25:59;;;;;;;5.80;4.22;;;15.10;80.60;;;;;;5031970;28;20093;-73
2023/05/10 07:28:25;;;;;;;7.78;5.03;;;15.10;80.50;;;;;;5015439;28;20041;-73
2023/05/10 07:30:51;;;;;;;7.45;4.88;;;15.10;80.40;;;;;;5027875;28;20064;-73
2023/05/10 07:33:17;;;;;;;8.07;5.15;;;15.10;80.40;;;;;;4995846;28;20552;-73
2023/05/10 07:35:43;;;;;;;6.22;4.47;;;15.10;80.50;;;;;;5013413;28;20038;-73
2023/05/10 07:38:10;;;;;;;6.45;4.82;;;15.20;80.50;;;;;;5012127;28;20505;-74
2023/05/10 07:40:36;;;;;;;5.70;4.00;;;15.20;80.30;;;;;;5012379;28;20049;-73
2023/05/10 07:43:02;;;;;;;6.88;4.55;;;15.20;80.20;;;;;;5011993;28;20168;-74
2023/05/10 07:45:28;;;;;;;6.32;4.32;;;15.20;80.20;;;;;;5011949;28;20512;-74
2023/05/10 07:47:54;;;;;;;7.45;5.80;;;15.20;80.10;;;;;;5004877;28;20046;-74
2023/05/10 07:50:20;;;;;;;7.70;5.50;;;15.20;80.30;;;;;;4998986;28;20045;-73
2023/05/10 07:52:47;;;;;;;8.05;5.13;;;15.20;80.40;;;;;;5031589;28;20095;-74
2023/05/10 07:55:13;;;;;;;8.18;5.28;;;15.30;80.50;;;;;;5031673;28;20084;-73
2023/05/10 07:57:39;;;;;;;8.18;6.30;;;15.30;80.70;;;;;;5031673;28;20073;-74
2023/05/10 08:00:06;;;;;;;8.05;6.22;;;15.40;81.00;;;;;;5031670;28;20045;-77
2023/05/10 08:02:34;;;;;;;6.40;4.80;;;15.40;81.40;;;;;;5015101;28;20044;-76
2023/05/10 08:05:00;;;;;;;7.18;5.47;;;15.50;81.20;;;;;;5014682;28;20525;-74
2023/05/10 08:07:26;;;;;;;5.68;4.70;;;15.50;81.20;;;;;;4979764;28;20136;-74
2023/05/10 08:09:52;;;;;;;6.28;5.13;;;15.60;81.10;;;;;;5011853;28;20481;-74
2023/05/10 08:12:17;;;;;;;7.85;6.20;;;15.70;80.80;;;;;;5011784;28;20041;-74
2023/05/10 08:14:43;;;;;;;6.63;5.45;;;15.70;80.20;;;;;;5012095;28;20101;-73
2023/05/10 08:17:09;;;;;;;7.97;6.22;;;15.80;80.00;;;;;;5012165;28;20461;-73
2023/05/10 08:19:34;;;;;;;7.30;5.97;;;15.80;79.60;;;;;;5012004;28;20400;-74
2023/05/10 08:22:00;;;;;;;8.32;7.32;;;15.90;79.30;;;;;;5011772;28;20129;-74
2023/05/10 08:24:26;;;;;;;10.13;7.95;;;15.90;79.00;;;;;;5011574;28;20488;-74
2023/05/10 08:26:51;;;;;;;12.07;7.95;;;15.80;78.70;;;;;;5013694;28;20046;-73
2023/05/10 08:29:17;;;;;;;10.63;8.70;;;15.80;78.70;;;;;;4999177;28;20508;-74
2023/05/10 08:31:43;;;;;;;9.13;6.95;;;15.80;78.70;;;;;;5015522;28;20053;-73
2023/05/10 08:34:08;;;;;;;9.65;8.65;;;15.80;78.80;;;;;;5002542;28;20033;-73
2023/05/10 08:36:34;;;;;;;11.23;8.90;;;15.80;78.80;;;;;;5018643;28;20042;-73
2023/05/10 08:39:00;;;;;;;10.13;8.93;;;15.80;78.80;;;;;;5035382;28;20041;-73
2023/05/10 08:41:26;;;;;;;10.93;9.18;;;15.80;78.90;;;;;;5018706;28;20045;-73
2023/05/10 08:43:53;;;;;;;13.55;9.10;;;15.80;79.00;;;;;;5018584;28;20164;-73
2023/05/10 08:46:21;;;;;;;12.90;9.95;;;15.80;79.10;;;;;;5035370;28;20040;-73
2023/05/10 08:48:49;;;;;;;10.57;9.10;;;15.80;79.10;;;;;;5018446;28;20042;-73
2023/05/10 08:51:19;;;;;;;11.48;8.75;;;15.80;79.00;;;;;;5032137;28;20042;-73
2023/05/10 08:53:45;;;;;;;11.52;8.75;;;15.80;79.00;;;;;;5030935;28;20045;-73
2023/05/10 08:56:11;;;;;;;11.98;8.77;;;15.80;79.20;;;;;;5015348;28;20481;-73
2023/05/10 08:58:38;;;;;;;9.63;7.72;;;15.80;79.40;;;;;;5015253;28;20045;-73
2023/05/10 09:01:05;;;;;;;10.30;7.93;;;15.80;79.30;;;;;;5015167;28;20103;-73
2023/05/10 09:03:32;;;;;;;9.20;7.63;;;15.80;79.20;;;;;;5015204;28;20429;-73
2023/05/10 09:05:58;;;;;;;7.82;6.95;;;15.80;78.90;;;;;;4982345;28;20050;-69
2023/05/10 09:08:28;;;;;;;8.77;7.20;;;15.80;78.80;;;;;;5015646;28;20053;-69
2023/05/10 09:10:57;;;;;;;7.70;6.68;;;15.80;78.90;;;;;;5014546;28;20497;-69
2023/05/10 09:13:24;;;;;;;7.88;6.55;;;15.80;78.90;;;;;;4998181;28;20046;-69
2023/05/10 09:15:51;;;;;;;7.45;6.28;;;15.70;78.80;;;;;;5014647;28;20061;-68
2023/05/10 09:18:16;;;;;;;7.50;5.93;;;15.70;78.90;;;;;;5014466;28;20046;-68
2023/05/10 09:20:42;;;;;;;6.38;5.72;;;15.80;79.10;;;;;;4998176;28;20124;-69
2023/05/10 09:23:08;;;;;;;7.30;5.38;;;15.80;79.20;;;;;;5000178;28;20551;-69
2023/05/10 09:25:34;;;;;;;6.25;5.18;;;15.80;79.20;;;;;;5034333;28;20382;-69
2023/05/10 09:28:00;;;;;;;5.65;4.82;;;15.80;79.40;;;;;;5034178;28;20044;-69
2023/05/10 09:30:30;;;;;;;5.60;4.80;;;15.80;79.70;;;;;;5033913;28;20489;-69
2023/05/10 09:32:57;;;;;;;4.95;4.05;;;15.90;79.60;;;;;;5033852;28;20037;-69
2023/05/10 09:35:25;;;;;;;4.53;3.85;;;15.90;79.50;;;;;;5001239;28;20045;-69
2023/05/10 09:37:53;;;;;;;5.10;3.97;;;15.90;79.40;;;;;;5033402;28;20037;-69
2023/05/10 09:40:24;;;;;;;5.28;3.63;;;16.00;79.20;;;;;;5023760;28;20049;-69
2023/05/10 09:42:59;;;;;;;5.65;3.92;;;16.00;79.20;;;;;;4997738;28;20041;-69
2023/05/10 09:45:27;;;;;;;6.78;4.32;;;16.00;79.20;;;;;;4997589;28;20042;-69
2023/05/10 09:47:53;;;;;;;6.78;4.80;;;16.00;79.00;;;;;;5014080;28;20389;-69
2023/05/10 09:50:20;;;;;;;6.97;4.93;;;16.10;78.80;;;;;;5013844;28;20057;-69
2023/05/10 09:52:53;;;;;;;7.85;4.82;;;16.10;78.70;;;;;;5013713;28;20037;-68
2023/05/10 09:55:21;;;;;;;5.43;4.72;;;16.20;78.60;;;;;;5030424;28;20129;-69
2023/05/10 09:57:48;;;;;;;6.95;4.97;;;16.10;78.60;;;;;;5033761;28;20042;-69
2023/05/10 10:00:19;;;;;;;5.60;4.70;;;16.20;78.60;;;;;;5033497;28;20631;-68
2023/05/10 10:02:53;;;;;;;6.95;5.13;;;16.20;78.60;;;;;;5033198;28;20041;-69
2023/05/10 10:05:19;;;;;;;7.03;5.60;;;16.20;78.50;;;;;;5033279;28;20052;-69
2023/05/10 10:07:45;;;;;;;6.28;4.90;;;16.20;78.50;;;;;;5016861;28;20049;-68
2023/05/10 10:10:12;;;;;;;7.03;5.93;;;16.20;78.50;;;;;;5015119;28;20042;-69
2023/05/10 10:12:40;;;;;;;8.63;5.68;;;16.30;78.60;;;;;;5016722;28;20076;-69
2023/05/10 10:15:07;;;;;;;8.40;6.38;;;16.30;78.50;;;;;;5033395;28;20099;-69
2023/05/10 10:17:36;;;;;;;7.70;5.80;;;16.30;78.50;;;;;;5033119;28;20037;-69
2023/05/10 10:20:03;;;;;;;8.25;5.97;;;16.40;78.70;;;;;;5032925;28;20048;-68
2023/05/10 10:22:29;;;;;;;6.95;5.88;;;16.40;78.50;;;;;;5033215;28;20111;-69
2023/05/10 10:24:55;;;;;;;8.32;6.28;;;16.40;78.50;;;;;;5032627;28;20100;-69
2023/05/10 10:27:31;;;;;;;9.27;5.75;;;16.50;78.60;;;;;;5031168;28;20447;-69
2023/05/10 10:29:57;;;;;;;6.75;6.05;;;16.50;78.10;;;;;;5013796;28;20081;-68
2023/05/10 10:32:32;;;;;;;7.28;5.65;;;16.60;78.10;;;;;;5012855;28;20089;-68
2023/05/10 10:34:59;;;;;;;7.35;5.90;;;16.60;77.90;;;;;;5013157;28;20512;-69
2023/05/10 10:37:45;;;;;;;7.75;6.68;;;16.70;77.80;;;;;;5013036;28;20374;-68
2023/05/10 10:40:31;;;;;;;8.55;7.43;;;16.80;77.30;;;;;;5015273;28;20030;-69
2023/05/10 10:43:18;;;;;;;7.05;5.97;;;16.80;77.00;;;;;;5032185;28;20090;-69
2023/05/10 10:45:47;;;;;;;7.10;6.13;;;16.80;77.10;;;;;;5032291;28;20500;-69
2023/05/10 10:48:23;;;;;;;7.03;6.07;;;16.90;77.00;;;;;;5032406;28;20080;-69
2023/05/10 10:50:57;;;;;;;7.68;6.32;;;16.90;76.70;;;;;;5031807;28;20041;-69
2023/05/10 10:53:27;;;;;;;6.53;5.82;;;16.90;76.60;;;;;;5032333;28;20049;-69
2023/05/10 10:56:06;;;;;;;8.05;6.43;;;16.90;76.60;;;;;;5032632;28;20120;-69
2023/05/10 10:58:34;;;;;;;7.03;5.85;;;17.00;76.50;;;;;;5031627;28;20052;-69
2023/05/10 11:01:15;;;;;;;7.28;5.63;;;17.00;76.60;;;;;;5015868;28;20071;-69
2023/05/10 11:03:54;;;;;;;7.88;5.97;;;17.00;76.10;;;;;;5032179;28;20461;-69
2023/05/10 11:06:32;;;;;;;7.10;6.40;;;17.00;76.10;;;;;;5031984;28;20045;-69
2023/05/10 11:08:58;;;;;;;8.32;6.93;;;17.10;75.80;;;;;;5032365;28;20045;-69
2023/05/10 11:11:25;;;;;;;8.85;7.72;;;17.10;75.70;;;;;;5015877;28;20041;-69
2023/05/10 11:13:51;;;;;;;14.23;10.02;;;17.10;75.50;;;;;;5030347;28;20080;-68
2023/05/10 11:16:24;;;;;;;9.70;8.50;;;17.10;75.30;;;;;;5032192;28;20056;-68
2023/05/10 11:19:03;;;;;;;13.60;9.50;;;17.10;75.20;;;;;;5032009;28;20090;-68
2023/05/10 11:21:30;;;;;;;14.45;11.55;;;17.10;75.50;;;;;;5031708;28;20033;-69
2023/05/10 11:23:58;;;;;;;13.13;10.80;;;17.10;75.60;;;;;;5031863;28;20049;-69
2023/05/10 11:26:25;;;;;;;13.07;10.50;;;17.10;75.60;;;;;;5032079;28;20444;-69
2023/05/10 11:28:56;;;;;;;14.75;12.00;;;17.10;75.60;;;;;;5031865;28;20038;-68
2023/05/10 11:31:23;;;;;;;13.65;11.57;;;17.10;75.70;;;;;;5013282;28;20046;-69
2023/05/10 11:33:51;;;;;;;14.23;10.80;;;17.10;76.10;;;;;;5012256;28;20045;-68
2023/05/10 11:36:21;;;;;;;13.43;10.95;;;17.20;76.30;;;;;;5012077;28;20034;-69
2023/05/10 11:38:47;;;;;;;14.75;12.05;;;17.20;76.10;;;;;;5011948;28;20046;-69
2023/05/10 11:41:15;;;;;;;15.27;11.10;;;17.20;76.10;;;;;;5011917;28;20169;-68
2023/05/10 11:43:41;;;;;;;12.20;9.95;;;17.20;75.90;;;;;;5011899;28;20045;-69
2023/05/10 11:46:11;;;;;;;11.20;9.45;;;17.30;75.70;;;;;;5013174;28;20038;-69
2023/05/10 11:48:41;;;;;;;10.63;9.07;;;17.30;75.30;;;;;;5011905;28;20477;-69
2023/05/10 11:51:08;;;;;;;12.35;9.55;;;17.30;74.90;;;;;;5011736;28;20092;-69
2023/05/10 11:53:33;;;;;;;11.35;9.48;;;17.30;74.70;;;;;;4995428;28;20050;-68
2023/05/10 11:56:04;;;;;;;10.48;8.98;;;17.30;74.70;;;;;;5011900;28;20493;-68
2023/05/10 11:58:31;;;;;;;11.57;9.13;;;17.40;74.60;;;;;;5011732;28;20065;-68
2023/05/10 12:00:58;;;;;;;9.80;8.00;;;17.40;74.50;;;;;;5005325;28;20476;-68
2023/05/10 12:03:24;;;;;;;11.10;8.93;;;17.40;74.10;;;;;;5000996;28;20493;-70
2023/05/10 12:05:50;;;;;;;12.18;9.30;;;17.40;73.90;;;;;;5029547;28;20131;-70
2023/05/10 12:08:21;;;;;;;11.98;9.77;;;17.30;73.90;;;;;;5031992;28;20485;-68
2023/05/10 12:10:47;;;;;;;10.40;9.30;;;17.30;73.70;;;;;;5015673;28;20040;-68
2023/05/10 12:13:16;;;;;;;11.65;10.40;;;17.30;73.90;;;;;;4999248;28;20046;-68
2023/05/10 12:15:42;;;;;;;12.05;9.57;;;17.20;73.70;;;;;;5016185;28;20504;-68
2023/05/10 12:18:22;;;;;;;11.77;10.27;;;17.20;73.60;;;;;;5024315;28;20044;-68
2023/05/10 12:20:48;;;;;;;11.48;9.43;;;17.20;73.80;;;;;;5018452;28;20040;-68
2023/05/10 12:23:14;;;;;;;12.75;10.35;;;17.10;74.00;;;;;;5035408;28;20488;-69
2023/05/10 12:25:39;;;;;;;12.40;9.73;;;17.10;74.30;;;;;;5035434;28;20037;-70
2023/05/10 12:28:07;;;;;;;10.95;9.32;;;17.10;74.40;;;;;;5035193;28;20052;-71
2023/05/10 12:30:35;;;;;;;11.88;10.40;;;17.00;74.50;;;;;;5035358;28;20060;-70
2023/05/10 12:33:13;;;;;;;12.15;9.57;;;17.00;74.50;;;;;;5020037;28;20045;-71
2023/05/10 12:35:46;;;;;;;14.18;9.93;;;17.00;74.50;;;;;;5029052;28;20050;-70
2023/05/10 12:38:31;;;;;;;10.93;8.97;;;17.00;74.80;;;;;;5034611;28;20555;-69
2023/05/10 12:41:02;;;;;;;11.38;8.75;;;17.00;74.90;;;;;;5034834;28;20049;-69
2023/05/10 12:43:28;;;;;;;11.95;10.50;;;16.90;75.10;;;;;;5035211;28;20088;-69
2023/05/10 12:45:54;;;;;;;10.55;9.30;;;16.90;75.20;;;;;;5018363;28;20382;-68
2023/05/10 12:48:20;;;;;;;11.75;9.65;;;16.90;75.30;;;;;;5019885;28;20048;-68
2023/05/10 12:50:46;;;;;;;11.15;9.25;;;16.90;75.50;;;;;;5034918;28;20132;-67